createdAt,value
2018-10-17T00:02:22.457Z,23.10
2018-10-17T00:04:51.104Z,25.73
2018-10-17T00:07:19.682Z,21.23
2018-10-17T00:09:48.169Z,25.60
2018-10-17T00:12:16.707Z,25.27
2018-10-17T00:14:45.302Z,27.30
2018-10-17T00:17:14.373Z,21.67
2018-10-17T00:19:42.864Z,19.90
2018-10-17T00:22:12.295Z,22.30
2018-10-17T00:24:40.881Z,18.40
2018-10-17T00:27:10.470Z,20.20
2018-10-17T00:29:38.964Z,19.70
2018-10-17T00:32:07.634Z,24.57
2018-10-17T00:34:36.185Z,19.30
2018-10-17T00:37:04.802Z,20.50
2018-10-17T00:39:33.283Z,22.77
2018-10-17T00:42:02.584Z,21.83
2018-10-17T00:44:32.786Z,22.90
2018-10-17T00:47:01.400Z,23.50
2018-10-17T00:49:29.949Z,21.93
2018-10-17T00:51:58.462Z,22.90
2018-10-17T00:54:26.995Z,21.40
2018-10-17T00:56:55.584Z,19.53
2018-10-17T00:59:24.177Z,20.33
2018-10-17T01:01:52.771Z,17.87
2018-10-17T01:04:21.789Z,21.43
2018-10-17T01:06:50.306Z,20.07
2018-10-17T01:09:19.025Z,19.87
2018-10-17T01:11:47.612Z,23.67
2018-10-17T01:14:16.161Z,18.93
2018-10-17T01:16:44.648Z,20.77
2018-10-17T01:19:13.314Z,22.80
2018-10-17T01:21:41.843Z,18.90
2018-10-17T01:24:10.398Z,19.20
2018-10-17T01:26:38.909Z,17.43
2018-10-17T01:29:07.547Z,21.43
2018-10-17T01:31:36.077Z,18.27
2018-10-17T01:34:05.631Z,20.10
2018-10-17T01:36:34.149Z,22.50
2018-10-17T01:39:02.868Z,20.20
2018-10-17T01:41:31.444Z,20.23
2018-10-17T01:43:59.964Z,21.00
2018-10-17T01:46:28.592Z,20.80
2018-10-17T01:48:57.292Z,21.27
2018-10-17T01:51:25.798Z,20.70
2018-10-17T01:53:55.153Z,23.43
2018-10-17T01:56:23.849Z,21.60
2018-10-17T01:58:52.395Z,21.83
2018-10-17T02:01:21.941Z,21.87
2018-10-17T02:03:50.505Z,22.80
2018-10-17T02:06:20.072Z,20.03
2018-10-17T02:08:48.685Z,19.73
2018-10-17T02:11:17.315Z,18.27
2018-10-17T02:13:47.616Z,18.60
2018-10-17T02:16:16.091Z,21.53
2018-10-17T02:18:44.614Z,21.13
2018-10-17T02:21:13.298Z,23.47
2018-10-17T02:23:41.906Z,20.87
2018-10-17T02:26:10.468Z,18.33
2018-10-17T02:28:39.685Z,19.70
2018-10-17T02:31:08.313Z,22.67
2018-10-17T02:33:36.854Z,20.57
2018-10-17T02:36:05.453Z,20.47
2018-10-17T02:38:33.993Z,20.70
2018-10-17T02:41:02.915Z,18.40
2018-10-17T02:43:32.053Z,20.40
2018-10-17T02:46:00.581Z,23.87
2018-10-17T02:48:29.290Z,19.20
2018-10-17T02:50:57.981Z,22.00
2018-10-17T02:53:26.538Z,20.97
2018-10-17T02:55:55.170Z,21.13
2018-10-17T02:58:23.871Z,21.07
2018-10-17T03:00:52.571Z,18.97
2018-10-17T03:03:21.236Z,20.97
2018-10-17T03:05:49.773Z,22.03
2018-10-17T03:08:19.340Z,19.00
2018-10-17T03:10:48.271Z,22.60
2018-10-17T03:13:16.826Z,20.57
2018-10-17T03:15:45.557Z,21.30
2018-10-17T03:18:14.099Z,21.00
2018-10-17T03:20:42.696Z,19.90
2018-10-17T03:23:11.365Z,22.03
2018-10-17T03:25:39.901Z,24.10
2018-10-17T03:28:08.594Z,21.70
2018-10-17T03:30:37.062Z,20.80
2018-10-17T03:33:05.734Z,23.00
2018-10-17T03:35:34.318Z,21.40
2018-10-17T03:38:02.930Z,22.53
2018-10-17T03:40:31.514Z,21.67
2018-10-17T03:43:00.294Z,22.60
2018-10-17T03:45:29.116Z,22.73
2018-10-17T03:47:57.635Z,25.03
2018-10-17T03:50:26.150Z,21.97
2018-10-17T03:52:55.199Z,26.80
2018-10-17T03:55:23.854Z,24.07
2018-10-17T03:57:52.382Z,27.80
2018-10-17T04:00:20.938Z,27.43
2018-10-17T04:02:49.660Z,23.87
2018-10-17T04:05:18.346Z,23.87
2018-10-17T04:07:46.782Z,25.43
2018-10-17T04:10:15.291Z,25.57
2018-10-17T04:12:44.009Z,23.37
2018-10-17T04:15:12.529Z,27.47
2018-10-17T04:17:41.306Z,23.50
2018-10-17T04:20:09.789Z,23.00
2018-10-17T04:22:43.004Z,22.77
2018-10-17T04:25:11.470Z,24.97
2018-10-17T04:27:39.978Z,24.90
2018-10-17T04:30:08.681Z,23.80
2018-10-17T04:32:37.461Z,22.93
2018-10-17T04:35:06.380Z,24.63
2018-10-17T04:37:35.926Z,23.13
2018-10-17T04:40:04.754Z,24.77
2018-10-17T04:42:33.374Z,23.13
2018-10-17T04:45:02.574Z,24.80
2018-10-17T04:47:31.266Z,21.90
2018-10-17T04:50:00.154Z,23.87
2018-10-17T04:52:28.807Z,28.60
2018-10-17T04:54:57.392Z,30.37
2018-10-17T04:57:26.100Z,27.37
2018-10-17T04:59:54.711Z,28.40
2018-10-17T05:02:23.305Z,25.43
2018-10-17T05:04:51.804Z,24.13
2018-10-17T05:07:20.406Z,21.63
2018-10-17T05:09:48.916Z,24.50
2018-10-17T05:12:18.256Z,24.10
2018-10-17T05:14:47.419Z,23.90
2018-10-17T05:17:16.062Z,26.87
2018-10-17T05:19:44.725Z,25.53
2018-10-17T05:22:13.331Z,21.97
2018-10-17T05:24:41.973Z,24.63
2018-10-17T05:27:10.489Z,27.63
2018-10-17T05:29:39.336Z,24.77
2018-10-17T05:32:07.943Z,26.07
2018-10-17T05:34:37.172Z,25.00
2018-10-17T05:37:06.213Z,24.50
2018-10-17T05:39:34.909Z,27.07
2018-10-17T05:42:04.867Z,23.10
2018-10-17T05:44:33.409Z,25.07
2018-10-17T05:47:02.173Z,27.53
2018-10-17T05:49:31.467Z,27.97
2018-10-17T05:52:00.074Z,31.97
2018-10-17T05:54:29.536Z,29.10
2018-10-17T05:56:58.131Z,27.60
2018-10-17T05:59:26.717Z,26.43
2018-10-17T06:01:55.775Z,25.57
2018-10-17T06:04:24.285Z,26.90
2018-10-17T06:06:53.678Z,26.63
2018-10-17T06:09:23.321Z,32.97
2018-10-17T06:11:51.916Z,31.63
2018-10-17T06:14:20.452Z,28.00
2018-10-17T06:16:49.066Z,28.90
2018-10-17T06:19:17.702Z,28.97
2018-10-17T06:21:46.370Z,32.40
2018-10-17T06:24:15.005Z,29.93
2018-10-17T06:26:44.886Z,35.40
2018-10-17T06:29:13.556Z,30.40
2018-10-17T06:31:42.114Z,29.73
2018-10-17T06:34:10.899Z,29.77
2018-10-17T06:36:39.521Z,32.30
2018-10-17T06:39:11.343Z,33.73
2018-10-17T06:41:39.950Z,30.27
2018-10-17T06:44:08.797Z,28.60
2018-10-17T06:46:37.613Z,27.70
2018-10-17T06:49:06.989Z,28.80
2018-10-17T06:51:35.475Z,33.27
2018-10-17T06:54:04.287Z,33.67
2018-10-17T06:56:32.825Z,33.37
2018-10-17T06:59:01.557Z,29.17
2018-10-17T07:01:30.360Z,32.97
2018-10-17T07:03:58.914Z,35.83
2018-10-17T07:06:27.551Z,38.77
2018-10-17T07:08:56.202Z,35.03
2018-10-17T07:11:24.820Z,36.73
2018-10-17T07:13:53.441Z,35.70
2018-10-17T07:16:22.111Z,40.70
2018-10-17T07:18:50.735Z,37.20
2018-10-17T07:21:19.293Z,30.47
2018-10-17T07:23:47.887Z,37.00
2018-10-17T07:26:16.403Z,33.13
2018-10-17T07:28:45.086Z,37.07
2018-10-17T07:31:13.773Z,33.57
2018-10-17T07:33:42.401Z,39.27
2018-10-17T07:36:11.216Z,37.17
2018-10-17T07:38:39.823Z,30.03
2018-10-17T07:41:09.261Z,34.93
2018-10-17T07:43:37.831Z,30.80
2018-10-17T07:46:07.517Z,25.20
2018-10-17T07:48:37.366Z,30.87
2018-10-17T07:51:06.150Z,40.77
2018-10-17T07:53:35.453Z,28.53
2018-10-17T07:56:04.152Z,31.17
2018-10-17T07:58:33.167Z,28.23
2018-10-17T08:01:01.750Z,25.07
2018-10-17T08:03:32.365Z,22.97
2018-10-17T08:06:00.999Z,23.93
2018-10-17T08:08:29.470Z,26.87
2018-10-17T08:10:58.038Z,25.60
2018-10-17T08:13:26.680Z,24.90
2018-10-17T08:15:55.148Z,24.63
2018-10-17T08:18:23.720Z,25.90
2018-10-17T08:20:52.655Z,25.47
2018-10-17T08:23:21.225Z,26.97
2018-10-17T08:25:49.943Z,21.60
2018-10-17T08:28:18.956Z,27.53
2018-10-17T08:30:47.529Z,28.87
2018-10-17T08:33:18.761Z,29.43
2018-10-17T08:35:47.403Z,21.20
2018-10-17T08:38:16.050Z,24.77
2018-10-17T08:40:44.670Z,23.90
2018-10-17T08:43:13.299Z,27.63
2018-10-17T08:45:42.449Z,30.37
2018-10-17T08:48:11.137Z,26.83
2018-10-17T08:50:40.902Z,26.60
2018-10-17T08:53:09.477Z,35.13
2018-10-17T08:55:38.598Z,34.37
2018-10-17T08:58:07.217Z,29.77
2018-10-17T09:00:35.827Z,28.90
2018-10-17T09:03:04.652Z,31.80
2018-10-17T09:05:33.333Z,29.67
2018-10-17T09:08:03.122Z,26.70
2018-10-17T09:10:31.698Z,29.43
2018-10-17T09:13:00.905Z,29.97
2018-10-17T09:15:29.555Z,38.40
2018-10-17T09:17:58.112Z,37.07
2018-10-17T09:20:27.103Z,29.43
2018-10-17T09:22:55.447Z,27.07
2018-10-17T09:25:23.935Z,21.67
2018-10-17T09:27:53.136Z,28.47
2018-10-17T09:30:22.721Z,25.80
2018-10-17T09:32:51.354Z,30.37
2018-10-17T09:35:20.060Z,23.50
2018-10-17T09:37:49.205Z,24.60
2018-10-17T09:40:17.834Z,23.17
2018-10-17T09:42:46.466Z,25.77
2018-10-17T09:45:15.027Z,19.33
2018-10-17T09:47:43.646Z,28.80
2018-10-17T09:50:12.309Z,21.50
2018-10-17T09:52:41.081Z,20.57
2018-10-17T09:55:10.045Z,16.93
2018-10-17T09:57:38.727Z,19.63
2018-10-17T10:01:15.360Z,20.20
2018-10-17T10:03:44.322Z,20.00
2018-10-17T10:06:12.922Z,28.07
2018-10-17T10:08:41.623Z,19.07
2018-10-17T10:11:10.217Z,22.23
2018-10-17T10:13:38.897Z,18.53
2018-10-17T10:16:07.571Z,21.63
2018-10-17T10:18:36.027Z,22.97
2018-10-17T10:21:04.716Z,26.07
2018-10-17T10:23:33.380Z,25.13
2018-10-17T10:26:01.923Z,27.83
2018-10-17T10:28:30.503Z,20.70
2018-10-17T10:30:59.153Z,27.03
2018-10-17T10:33:27.744Z,23.83
2018-10-17T10:35:56.771Z,25.60
2018-10-17T10:38:25.359Z,25.97
2018-10-17T10:40:54.047Z,19.07
2018-10-17T10:43:23.726Z,20.23
2018-10-17T10:45:52.321Z,20.77
2018-10-17T10:48:21.057Z,17.97
2018-10-17T10:50:49.830Z,24.33
2018-10-17T10:53:18.318Z,22.13
2018-10-17T10:55:48.141Z,20.87
2018-10-17T10:58:16.778Z,21.97
2018-10-17T11:00:45.393Z,24.57
2018-10-17T11:03:14.104Z,23.30
2018-10-17T11:05:42.879Z,23.63
2018-10-17T11:08:11.584Z,21.93
2018-10-17T11:10:40.134Z,22.27
2018-10-17T11:13:09.028Z,26.40
2018-10-17T11:15:38.227Z,21.23
2018-10-17T11:20:45.379Z,24.60
2018-10-17T11:23:14.614Z,19.90
2018-10-17T11:25:43.218Z,23.40
2018-10-17T11:28:11.903Z,17.70
2018-10-17T11:30:40.671Z,16.00
2018-10-17T11:33:09.322Z,15.47
2018-10-17T11:35:38.027Z,15.67
2018-10-17T11:38:06.658Z,14.43
2018-10-17T11:40:35.240Z,16.13
2018-10-17T11:43:03.872Z,17.30
2018-10-17T11:45:33.530Z,15.50
2018-10-17T11:48:02.418Z,13.77
2018-10-17T11:50:31.008Z,23.47
2018-10-17T11:52:59.682Z,19.90
2018-10-17T11:55:28.153Z,21.23
2018-10-17T11:57:56.846Z,22.00
2018-10-17T12:00:25.491Z,16.57
2018-10-17T12:02:54.309Z,17.57
2018-10-17T12:05:23.122Z,20.20
2018-10-17T12:07:51.453Z,27.20
2018-10-17T12:10:20.148Z,22.60
2018-10-17T12:12:48.696Z,23.73
2018-10-17T12:15:17.325Z,21.33
2018-10-17T12:17:45.918Z,25.37
2018-10-17T12:20:15.701Z,21.13
2018-10-17T12:22:45.209Z,21.93
2018-10-17T12:25:14.286Z,24.50
2018-10-17T12:27:42.909Z,22.07
2018-10-17T12:30:13.668Z,15.03
2018-10-17T12:32:42.434Z,22.20
2018-10-17T12:35:11.925Z,15.78
2018-10-17T12:37:40.615Z,15.50
2018-10-17T12:40:10.657Z,19.00
2018-10-17T12:42:39.207Z,15.68
2018-10-17T12:45:07.807Z,17.95
2018-10-17T12:47:36.374Z,14.93
2018-10-17T12:50:05.441Z,15.95
2018-10-17T12:52:33.896Z,14.55
2018-10-17T12:55:02.402Z,18.45
2018-10-17T12:57:30.827Z,18.25
2018-10-17T12:59:59.831Z,13.22
2018-10-17T13:02:29.388Z,13.22
2018-10-17T13:04:58.021Z,13.13
2018-10-17T13:07:28.679Z,15.60
2018-10-17T13:09:57.246Z,16.17
2018-10-17T13:12:25.866Z,15.00
2018-10-17T13:14:54.768Z,13.38
2018-10-17T13:17:23.788Z,14.40
2018-10-17T13:19:52.394Z,16.32
2018-10-17T13:22:21.256Z,14.40
2018-10-17T13:24:50.009Z,14.53
2018-10-17T13:27:18.892Z,11.40
2018-10-17T13:29:47.590Z,13.95
2018-10-17T13:32:17.203Z,13.48
2018-10-17T13:34:45.895Z,15.32
2018-10-17T13:37:14.793Z,24.47
2018-10-17T13:39:43.342Z,16.87
2018-10-17T13:42:12.354Z,15.05
2018-10-17T13:44:40.927Z,18.87
2018-10-17T13:47:09.721Z,14.85
2018-10-17T13:49:38.665Z,20.23
2018-10-17T13:52:07.301Z,18.57
2018-10-17T13:54:35.981Z,18.17
2018-10-17T13:57:04.867Z,20.65
2018-10-17T13:59:33.637Z,12.18
2018-10-17T14:02:02.401Z,15.47
2018-10-17T14:04:31.530Z,18.57
2018-10-17T14:07:00.125Z,13.72
2018-10-17T14:09:28.676Z,15.93
2018-10-17T14:11:57.474Z,14.27
2018-10-17T14:14:26.062Z,15.63
2018-10-17T14:16:54.986Z,18.90
2018-10-17T14:19:24.051Z,19.45
2018-10-17T14:21:52.711Z,23.93
2018-10-17T14:24:21.554Z,23.57
2018-10-17T14:26:50.156Z,21.80
2018-10-17T14:29:18.686Z,18.93
2018-10-17T14:31:47.246Z,23.23
2018-10-17T14:34:15.985Z,28.60
2018-10-17T14:36:44.574Z,23.67
2018-10-17T14:39:13.757Z,25.37
2018-10-17T14:41:42.454Z,26.33
2018-10-17T14:44:10.967Z,29.07
2018-10-17T14:46:41.381Z,23.47
2018-10-17T14:49:10.001Z,31.67
2018-10-17T14:51:38.584Z,21.90
2018-10-17T14:54:07.273Z,27.23
2018-10-17T14:56:35.821Z,29.43
2018-10-17T14:59:04.578Z,26.67
2018-10-17T15:01:33.139Z,39.80
2018-10-17T15:04:01.695Z,39.03
2018-10-17T15:06:30.275Z,28.80
2018-10-17T15:08:59.156Z,28.20
2018-10-17T15:11:27.808Z,30.43
2018-10-17T15:13:57.532Z,41.73
2018-10-17T15:16:26.135Z,36.10
2018-10-17T15:18:54.844Z,36.57
2018-10-17T15:21:23.471Z,35.87
2018-10-17T15:23:52.221Z,39.73
2018-10-17T15:26:20.863Z,37.87
2018-10-17T15:28:49.395Z,37.50
2018-10-17T15:31:17.988Z,33.77
2018-10-17T15:33:46.558Z,35.47
2018-10-17T15:36:16.278Z,32.93
2018-10-17T15:38:45.085Z,36.47
2018-10-17T15:41:13.805Z,36.80
2018-10-17T15:43:42.678Z,28.03
2018-10-17T15:46:13.416Z,35.10
2018-10-17T15:48:42.069Z,39.93
2018-10-17T15:51:10.736Z,39.43
2018-10-17T15:53:40.350Z,46.40
2018-10-17T15:56:08.938Z,42.77
2018-10-17T15:58:37.610Z,50.97
2018-10-17T16:01:06.309Z,46.40
2018-10-17T16:03:35.009Z,38.27
2018-10-17T16:06:03.662Z,40.07
2018-10-17T16:08:32.637Z,39.60
2018-10-17T16:11:01.129Z,43.50
2018-10-17T16:13:29.747Z,49.17
2018-10-17T16:15:59.271Z,47.70
2018-10-17T16:18:27.949Z,51.10
2018-10-17T16:20:57.014Z,45.30
2018-10-17T16:23:25.538Z,45.50
2018-10-17T16:25:54.137Z,45.97
2018-10-17T16:28:22.720Z,45.43
2018-10-17T16:30:51.303Z,47.57
2018-10-17T16:33:20.269Z,44.53
2018-10-17T16:35:48.851Z,44.10
2018-10-17T16:38:17.606Z,43.83
2018-10-17T16:40:46.163Z,42.83
2018-10-17T16:43:14.826Z,39.37
2018-10-17T16:45:43.486Z,39.60
2018-10-17T16:48:11.980Z,38.23
2018-10-17T16:50:40.604Z,33.77
2018-10-17T16:53:09.100Z,30.40
2018-10-17T16:55:37.670Z,37.43
2018-10-17T16:58:06.331Z,34.00
2018-10-17T17:00:34.971Z,32.90
2018-10-17T17:03:04.908Z,35.37
2018-10-17T17:05:33.432Z,30.53
2018-10-17T17:08:01.918Z,29.07
2018-10-17T17:10:30.633Z,27.87
2018-10-17T17:12:59.249Z,29.17
2018-10-17T17:15:27.772Z,34.57
2018-10-17T17:17:56.433Z,38.93
2018-10-17T17:20:25.990Z,39.57
2018-10-17T17:22:56.125Z,44.33
2018-10-17T17:25:24.847Z,42.27
2018-10-17T17:27:53.533Z,38.40
2018-10-17T17:30:22.166Z,39.90
2018-10-17T17:32:50.722Z,35.77
2018-10-17T17:37:49.176Z,35.70
2018-10-17T17:40:17.746Z,35.93
2018-10-17T17:42:47.662Z,38.53
2018-10-17T17:45:16.246Z,35.90
2018-10-17T17:47:44.822Z,35.40
2018-10-17T17:50:13.661Z,45.43
2018-10-17T17:52:43.421Z,39.77
2018-10-17T17:55:11.987Z,38.47
2018-10-17T17:57:40.896Z,42.13
2018-10-17T18:00:09.563Z,40.67
2018-10-17T18:02:38.058Z,44.83
2018-10-17T18:05:07.711Z,46.37
2018-10-17T18:07:36.465Z,44.37
2018-10-17T18:10:05.640Z,47.77
2018-10-17T18:12:34.394Z,42.10
2018-10-17T18:15:03.097Z,46.23
2018-10-17T18:17:32.167Z,48.23
2018-10-17T18:20:00.821Z,44.93
2018-10-17T18:22:29.636Z,44.17
2018-10-17T18:24:58.130Z,46.13
2018-10-17T18:27:27.091Z,46.23
2018-10-17T18:29:55.729Z,42.67
2018-10-17T18:32:24.774Z,43.00
2018-10-17T18:34:54.473Z,44.20
2018-10-17T18:37:23.028Z,48.43
2018-10-17T18:39:51.670Z,41.57
2018-10-17T18:42:20.341Z,45.67
2018-10-17T18:44:49.191Z,46.37
2018-10-17T18:47:17.845Z,43.53
2018-10-17T18:49:46.854Z,45.70
2018-10-17T18:52:15.570Z,41.40
2018-10-17T18:54:44.258Z,40.00
2018-10-17T18:57:13.288Z,39.23
2018-10-17T18:59:41.992Z,42.97
2018-10-17T19:02:10.536Z,46.55
2018-10-17T19:04:39.213Z,42.63
2018-10-17T19:07:08.304Z,44.50
2018-10-17T19:09:36.964Z,45.20
2018-10-17T19:12:06.074Z,41.13
2018-10-17T19:14:34.862Z,48.43
2018-10-17T19:17:03.503Z,42.80
2018-10-17T19:19:32.088Z,49.07
2018-10-17T19:22:00.943Z,46.10
2018-10-17T19:24:29.667Z,44.83
2018-10-17T19:26:58.627Z,45.80
2018-10-17T19:29:27.386Z,43.30
2018-10-17T19:31:56.005Z,44.97
2018-10-17T19:34:24.775Z,43.70
2018-10-17T19:36:53.548Z,48.47
2018-10-17T19:39:22.740Z,47.23
2018-10-17T19:41:51.652Z,48.50
2018-10-17T19:44:20.231Z,46.97
2018-10-17T19:46:48.742Z,45.03
2018-10-17T19:49:17.378Z,46.80
2018-10-17T19:51:45.932Z,47.63
2018-10-17T19:54:15.857Z,40.67
2018-10-17T19:56:44.490Z,44.63
2018-10-17T19:59:14.137Z,45.37
2018-10-17T20:01:42.757Z,46.33
2018-10-17T20:04:11.388Z,46.43
2018-10-17T20:06:40.247Z,46.83
2018-10-17T20:09:10.333Z,48.90
2018-10-17T20:11:39.097Z,50.57
2018-10-17T20:14:09.459Z,47.63
2018-10-17T20:16:37.970Z,48.13
2018-10-17T20:19:06.729Z,43.97
2018-10-17T20:21:35.402Z,42.67
2018-10-17T20:24:04.747Z,37.83
2018-10-17T20:26:33.605Z,41.63
2018-10-17T20:29:02.078Z,45.17
2018-10-17T20:31:30.896Z,51.07
2018-10-17T20:34:00.258Z,47.43
2018-10-17T20:36:28.873Z,48.07
2018-10-17T20:38:57.567Z,52.07
2018-10-17T20:41:26.798Z,47.47
2018-10-17T20:43:55.595Z,48.97
2018-10-17T20:46:24.423Z,46.33
2018-10-17T20:48:53.318Z,48.60
2018-10-17T20:51:22.122Z,45.30
2018-10-17T20:53:50.739Z,47.07
2018-10-17T20:56:19.735Z,47.73
2018-10-17T20:58:48.447Z,50.33
2018-10-17T21:01:17.009Z,52.00
2018-10-17T21:03:46.654Z,45.90
2018-10-17T21:06:15.270Z,44.43
2018-10-17T21:08:46.285Z,45.80
2018-10-17T21:11:14.942Z,40.80
2018-10-17T21:13:44.517Z,46.70
2018-10-17T21:16:13.432Z,48.27
2018-10-17T21:18:42.040Z,56.10
2018-10-17T21:21:10.581Z,59.10
2018-10-17T21:23:39.199Z,58.83
2018-10-17T21:26:07.937Z,57.27
2018-10-17T21:28:36.555Z,55.07
2018-10-17T21:31:05.692Z,60.07
2018-10-17T21:33:34.291Z,65.30
2018-10-17T21:36:02.847Z,58.37
2018-10-17T21:38:31.383Z,61.83
2018-10-17T21:40:59.919Z,62.73
2018-10-17T21:43:28.615Z,59.60
2018-10-17T21:45:57.415Z,51.57
2018-10-17T21:48:25.977Z,60.53
2018-10-17T21:50:54.747Z,58.53
2018-10-17T21:53:23.447Z,64.37
2018-10-17T21:55:52.258Z,62.93
2018-10-17T21:58:20.881Z,65.30
2018-10-17T22:00:49.497Z,66.67
2018-10-17T22:03:18.378Z,63.60
2018-10-17T22:05:46.952Z,59.67
2018-10-17T22:08:15.533Z,49.33
2018-10-17T22:10:44.118Z,49.27
2018-10-17T22:13:12.769Z,52.63
2018-10-17T22:15:41.997Z,61.57
2018-10-17T22:18:10.768Z,65.23
2018-10-17T22:20:39.429Z,71.37
2018-10-17T22:23:08.310Z,61.30
2018-10-17T22:25:36.830Z,53.63
2018-10-17T22:28:05.664Z,58.13
2018-10-17T22:30:34.467Z,52.30
2018-10-17T22:33:03.005Z,59.97
2018-10-17T22:35:31.914Z,60.87
2018-10-17T22:38:00.675Z,57.13
2018-10-17T22:40:29.365Z,53.70
2018-10-17T22:42:58.026Z,60.97
2018-10-17T22:45:26.765Z,54.27
2018-10-17T22:47:56.490Z,55.73
2018-10-17T22:50:25.022Z,62.07
2018-10-17T22:52:54.177Z,64.53
2018-10-17T22:55:23.604Z,68.80
2018-10-17T22:57:52.105Z,70.67
2018-10-17T23:00:20.651Z,71.60
2018-10-17T23:02:49.337Z,76.23
2018-10-17T23:05:18.815Z,72.17
2018-10-17T23:07:47.393Z,57.60
2018-10-17T23:10:16.066Z,50.30
2018-10-17T23:12:46.877Z,56.53
2018-10-17T23:15:16.296Z,67.10
2018-10-17T23:17:45.105Z,78.33
2018-10-17T23:20:13.822Z,71.77
2018-10-17T23:22:42.593Z,70.53
2018-10-17T23:25:11.973Z,80.47
2018-10-17T23:27:41.213Z,76.13
2018-10-17T23:30:10.458Z,67.17
2018-10-17T23:32:39.687Z,71.83
2018-10-17T23:35:08.689Z,81.97
2018-10-17T23:37:43.876Z,81.90
2018-10-17T23:40:12.685Z,82.73
2018-10-17T23:42:41.419Z,70.27
2018-10-17T23:45:11.074Z,72.03
2018-10-17T23:47:40.215Z,63.83
2018-10-17T23:50:09.023Z,65.13
2018-10-17T23:52:37.732Z,56.23
2018-10-17T23:55:06.956Z,53.27
2018-10-17T23:57:35.647Z,64.40
